Airfield :
LOGIN :

Register | Disclaimer

   EN    FR    IT 

 










Legend :    VFR   Marginal VFR   IFR   Intensive IFR   Very Intensive IFR
Visi :
Ceiling :
>= 8 km
>= 3000ft
5 to 8 km
1000 to 3000 ft
1500m to 5 km
500 to 1000 ft
800 to 1500m
200 to 500 ft
< 800m
< 200 ft
Symbols :   Thunderstorms  Fog  Heavy snow  Heavy precipitations  Wind > 20 kt
SIGMETs :     Misc.  Thunderstorms  Icing  Turbulence  Mountain Waves  Volcanic Ashes






- Airport Elevation : 49 ft
- IATA code : GLZ


EHGR - Gilze-Rijen Airbase

CURRENT METAR :
  • 232025Z AUTO 30015KT 270V340 9999 OVC150 07/01 Q1021 BLU

EXPIRED METARs :
  • 231955Z AUTO 31011KT 280V360 9999 FEW027 OVC051 08/03 Q1021 BLU
  • 231925Z AUTO 29008KT 250V330 9999 OVC140 07/04 Q1020 BLU
  • 231855Z AUTO 30010KT 260V330 9999 BKN039 OVC150 08/03 Q1019 BLU
  • 231825Z AUTO 31012KT 260V340 9999 BKN073 OVC200 08/03 Q1018 BLU
  • 231755Z AUTO 30013KT 270V360 9999 BKN066 BKN072 OVC077 08/04 Q1018 BLU

Expired Forecast.



MET'MAP, your aeronautical weather chart ! - Copyright ORBIFLY December 2007 - Disclaimer

ORBIFLY MET'MAP TEAM :

Programming & Development : Alexandra Zaïnal
Concept & original design : Baudouin d'Aumeries
Assistance for programming : Marc-Olivier Méhu
Technical & hardware support : Manuel Goepfert

Contact : metmap@orbifly.com




SOURCES & CREDITS :

   NOAA